Flight Track Log - Related Links

Times and Time Zones

All times are in EST time to prevent confusion due to time zone crossing. See the N108JN flight status page for this flight to view local times or setup timezone preferences in your user account.

Time Position Orientation Groundspeed Altitude Reporting Facility
EST Latitude Longitude Course Direction KTS MPH feet Rate Location/Type
Mon 10:55:10 PM 40.4814 -107.2214 44° Northeast 421 484 6,600  Level Denver Center
Mon 10:57:11 PM 40.4836 -107.2186 270° West 91 105 6,600  Level Denver Center
Mon 10:58:10 PM 40.4836 -107.2214 180° South 48 55 6,600  Level Denver Center
Mon 10:59:11 PM 40.4814 -107.2214 115° Southeast 6 7 6,600  Level Denver Center
Mon 11:00:11 PM 40.4794 -107.2158 90° East 6 7 6,600  Level Denver Center
Mon 11:01:11 PM 40.4794 -107.2106 107° East 12 14 6,600  Level Denver Center
Mon 11:02:11 PM 40.4775 -107.2022 280° West 17 20 6,600 939 Level Denver Center
Mon 11:04:10 PM 40.4914 -107.3089 238° Southwest 400 460 9,400 2,179 Climbing Denver Center
Mon 11:05:10 PM 40.4531 -107.3903 237° Southwest 288 331 13,100 3,570 Climbing Denver Center
Mon 11:06:11 PM 40.4128 -107.4714 235° Southwest 266 306 16,600 3,273 Climbing Denver Center
Mon 11:07:11 PM 40.3747 -107.5419 235° Southwest 271 312 19,700 3,300 Climbing Denver Center
Mon 11:08:11 PM 40.3281 -107.6283 235° Southwest 271 312 23,200 2,950 Climbing Denver Center
Mon 11:09:11 PM 40.2853 -107.7092 235° Southwest 271 312 25,600 2,370 Climbing Denver Center
Mon 11:10:10 PM 40.2386 -107.7953 234° Southwest 278 320 27,900 2,521 Climbing Denver Center
Mon 11:11:10 PM 40.2003 -107.8653 235° Southwest 283 326 30,600 1,835 Climbing Denver Center
Mon 11:12:11 PM 40.1511 -107.9567 234° Southwest 283 326 31,600 800 Climbing Denver Center
Mon 11:13:10 PM 40.0997 -108.0506 235° Southwest 299 344 32,200 850 Climbing Denver Center
Mon 11:14:11 PM 40.0464 -108.1497 233° Southwest 323 372 33,300 850 Climbing Denver Center
Mon 11:15:10 PM 39.9947 -108.2406 234° Southwest 343 395 33,900 650 Climbing Denver Center
Mon 11:16:11 PM 39.9347 -108.3500 236° Southwest 348 400 34,600 579 Climbing Denver Center
Mon 11:17:04 PM 39.8892 -108.4367 234° Southwest 345 397 35,000 474 Climbing Salt Lake Center
Mon 11:18:05 PM 39.8364 -108.5328 235° Southwest 343 395 35,500 571 Climbing Salt Lake Center
Mon 11:19:10 PM 39.7753 -108.6456 232° Southwest 353 406 36,200 624 Climbing Denver Center
Mon 11:20:10 PM 39.7083 -108.7567 236° Southwest 353 406 36,800 450 Climbing Denver Center
Mon 11:21:10 PM 39.6606 -108.8469 235° Southwest 353 406 37,100 446 Climbing Denver Center
Mon 11:22:11 PM 39.5978 -108.9633 235° Southwest 363 418 37,700 500 Climbing Denver Center
Mon 11:23:10 PM 39.5433 -109.0636 234° Southwest 358 412 38,100 350 Climbing Denver Center
Mon 11:24:11 PM 39.4847 -109.1664 235° Southwest 353 406 38,400 350 Climbing Denver Center
Mon 11:25:10 PM 39.4344 -109.2586 234° Southwest 352 405 38,800 300 Climbing Denver Center
Mon 11:26:11 PM 39.3711 -109.3714 234° Southwest 352 405 39,000 248 Climbing Denver Center
Mon 11:27:11 PM 39.3122 -109.4764 233° Southwest 357 411 39,300 331 Climbing Denver Center
Mon 11:28:18 PM 39.2481 -109.5881 234° Southwest 358 412 39,700 281 Climbing Salt Lake Center
Mon 11:29:19 PM 39.1911 -109.6875 234° Southwest 359 413 39,900 148 Climbing Salt Lake Center
Mon 11:30:20 PM 39.1253 -109.8042 234° Southwest 361 415 40,000 49 Climbing Salt Lake Center
Mon 11:31:22 PM 39.0681 -109.9056 233° Southwest 364 419 40,000  Level Salt Lake Center
Mon 11:32:23 PM 39.0089 -110.0081 234° Southwest 369 425 40,000  Level Salt Lake Center
Mon 11:33:24 PM 38.9392 -110.1292 234° Southwest 374 430 40,000 49 Level Salt Lake Center
Mon 11:34:25 PM 38.8794 -110.2342 233° Southwest 379 436 40,100  Climbing Salt Lake Center
Mon 11:35:27 PM 38.8189 -110.3381 233° Southwest 379 436 40,000 -49 Descending Salt Lake Center
Mon 11:36:28 PM 38.7478 -110.4589 233° Southwest 380 437 40,000  Level Salt Lake Center
Mon 11:37:29 PM 38.6872 -110.5625 233° Southwest 380 437 40,000  Level Salt Lake Center
Mon 11:38:30 PM 38.6172 -110.6819 233° Southwest 378 435 40,000  Level Salt Lake Center
Mon 11:39:31 PM 38.5578 -110.7822 233° Southwest 372 428 40,000  Level Salt Lake Center
Mon 11:40:33 PM 38.4981 -110.8836 233° Southwest 373 429 40,000  Level Salt Lake Center
Mon 11:41:34 PM 38.4328 -110.9944 233° Southwest 376 433 40,000  Level Salt Lake Center
Mon 11:42:35 PM 38.3694 -111.1019 233° Southwest 375 432 40,000  Level Salt Lake Center
Mon 11:43:36 PM 38.3064 -111.2067 232° Southwest 370 426 40,000  Level Salt Lake Center
Mon 11:44:37 PM 38.2425 -111.3125 233° Southwest 370 426 40,000  Level Salt Lake Center
Mon 11:45:39 PM 38.1800 -111.4186 232° Southwest 370 426 40,000  Level Salt Lake Center
Mon 11:46:40 PM 38.1161 -111.5239 232° Southwest 370 426 40,000  Level Salt Lake Center
Mon 11:47:41 PM 38.0511 -111.6297 231° Southwest 373 429 40,000  Level Salt Lake Center
Mon 11:48:42 PM 37.9842 -111.7344 232° Southwest 376 433 40,000  Level Salt Lake Center
Mon 11:49:43 PM 37.9192 -111.8397 233° Southwest 374 430 40,000 49 Level Salt Lake Center
Mon 11:50:45 PM 37.8558 -111.9464 232° Southwest 373 429 40,100 49 Climbing Salt Lake Center
Mon 11:51:46 PM 37.7911 -112.0525 232° Southwest 374 430 40,100 -49 Level Salt Lake Center
Mon 11:52:47 PM 37.7261 -112.1589 232° Southwest 375 432 40,000 -49 Descending Salt Lake Center
Mon 11:53:48 PM 37.6611 -112.2636 232° Southwest 374 430 40,000  Level Salt Lake Center
Mon 11:54:49 PM 37.5964 -112.3689 232° Southwest 373 429 40,000  Level Salt Lake Center
Mon 11:55:50 PM 37.5319 -112.4736 233° Southwest 371 427 40,000  Level Salt Lake Center
Mon 11:56:52 PM 37.4678 -112.5792 232° Southwest 371 427 40,000  Level Salt Lake Center
Mon 11:57:53 PM 37.4025 -112.6839 232° Southwest 370 426 40,000  Level Salt Lake Center
Mon 11:58:54 PM 37.3369 -112.7897 232° Southwest 372 428 40,000  Level Salt Lake Center
Mon 11:59:55 PM 37.2708 -112.8956 232° Southwest 374 430 40,000  Level Salt Lake Center
Tue 12:00:56 AM 37.2053 -113.0006 232° Southwest 375 432 40,000  Level Salt Lake Center
Tue 12:01:58 AM 37.1392 -113.1053 232° Southwest 375 432 40,000  Level Salt Lake Center
Tue 12:02:36 AM 37.1003 -113.1669 232° Southwest 382 440 40,000  Level Los Angeles Center
Tue 12:03:36 AM 37.0358 -113.2708 231° Southwest 382 440 40,000 50 Level Los Angeles Center
Tue 12:04:36 AM 36.9694 -113.3747 231° Southwest 382 440 40,100 50 Climbing Los Angeles Center
Tue 12:05:35 AM 36.8969 -113.4861 232° Southwest 382 440 40,100 -50 Level Los Angeles Center
Tue 12:06:36 AM 36.8322 -113.5894 231° Southwest 382 440 40,000 -50 Descending Los Angeles Center
Tue 12:07:35 AM 36.7675 -113.6903 231° Southwest 382 440 40,000  Level Los Angeles Center
Tue 12:08:36 AM 36.7028 -113.7906 233° Southwest 382 440 40,000  Level Los Angeles Center
Tue 12:09:36 AM 36.6400 -113.8933 230° Southwest 382 440 40,000  Level Los Angeles Center
Tue 12:10:35 AM 36.5731 -113.9933 230° Southwest 382 440 40,000  Level Los Angeles Center
Tue 12:11:36 AM 36.5081 -114.0908 231° Southwest 382 440 40,000  Level Los Angeles Center
Tue 12:12:36 AM 36.4408 -114.1931 231° Southwest 382 440 40,000  Level Los Angeles Center
Tue 12:13:35 AM 36.3756 -114.2928 231° Southwest 382 440 40,000  Level Los Angeles Center
Tue 12:14:36 AM 36.3083 -114.3947 231° Southwest 382 440 40,000  Level Los Angeles Center
Tue 12:15:35 AM 36.2428 -114.4939 231° Southwest 382 440 40,000 -353 Level Los Angeles Center
Tue 12:16:35 AM 36.1733 -114.5983 230° Southwest 387 445 39,300 -700 Descending Los Angeles Center
Tue 12:17:35 AM 36.1036 -114.7025 230° Southwest 387 445 38,600 -1,041 Descending Los Angeles Center
Tue 12:18:36 AM 36.0358 -114.8039 230° Southwest 387 445 37,200 -1,091 Descending Los Angeles Center
Tue 12:19:36 AM 35.9661 -114.9075 226° Southwest 387 445 36,400 -1,000 Descending Los Angeles Center
Tue 12:20:36 AM 35.8897 -115.0061 228° Southwest 387 445 35,200 -908 Descending Los Angeles Center
Tue 12:21:35 AM 35.8156 -115.1069 228° Southwest 392 451 34,600 -555 Descending Los Angeles Center
Tue 12:22:35 AM 35.7411 -115.2078 228° Southwest 397 457 34,100 -300 Descending Los Angeles Center
Tue 12:23:35 AM 35.6750 -115.2981 228° Southwest 397 457 34,000 -50 Descending Los Angeles Center
Tue 12:24:35 AM 35.6006 -115.3983 228° Southwest 397 457 34,000  Level Los Angeles Center
Tue 12:25:35 AM 35.5261 -115.5011 225° Southwest 397 457 34,000  Level Los Angeles Center
Tue 12:26:36 AM 35.4369 -115.6114 229° Southwest 405 466 34,000 -450 Level Los Angeles Center
Tue 12:27:35 AM 35.3706 -115.7061 227° Southwest 405 466 33,100 -908 Descending Los Angeles Center
Tue 12:28:35 AM 35.2914 -115.8083 227° Southwest 410 472 32,200 -900 Descending Los Angeles Center
Tue 12:29:35 AM 35.2125 -115.9128 229° Southwest 410 472 31,300 -950 Descending Los Angeles Center
Tue 12:30:35 AM 35.1353 -116.0197 226° Southwest 421 484 30,300 -1,200 Descending Los Angeles Center
Tue 12:31:35 AM 35.0539 -116.1239 227° Southwest 421 484 28,900 -1,350 Descending Los Angeles Center
Tue 12:32:35 AM 34.9725 -116.2303 227° Southwest 426 490 27,600 -1,550 Descending Los Angeles Center
Tue 12:33:35 AM 34.8825 -116.3492 230° Southwest 426 490 25,800 -1,450 Descending Los Angeles Center
Tue 12:34:35 AM 34.8072 -116.4603 274° West 426 490 24,700 -1,091 Descending Los Angeles Center
Tue 12:35:36 AM 34.8150 -116.6094 265° West 399 459 23,600 -700 Descending Los Angeles Center
Tue 12:36:35 AM 34.8039 -116.7536 255° West 418 481 23,300 -202 Descending Los Angeles Center
Tue 12:37:35 AM 34.7739 -116.8900 253° West 431 496 23,200 -645 Descending Los Angeles Center
Tue 12:38:36 AM 34.7419 -117.0161 263° West 431 496 22,000 -1,339 Descending Los Angeles Center
Tue 12:39:36 AM 34.7261 -117.1625 262° West 431 496 20,500 -1,513 Descending Los Angeles Center
Tue 12:40:35 AM 34.7100 -117.3089 263° West 437 503 19,000 -1,350 Descending Los Angeles Center
Tue 12:41:36 AM 34.6961 -117.4503 260° West 432 497 17,800 -1,289 Descending Los Angeles Center
Tue 12:42:36 AM 34.6758 -117.5861 261° West 422 486 16,400 -1,261 Descending Los Angeles Center
Tue 12:43:35 AM 34.6572 -117.7325 259° West 416 479 15,300 -1,100 Descending Los Angeles Center
Tue 12:44:36 AM 34.6367 -117.8556 261° West 403 464 14,200 -893 Descending Los Angeles Center
Tue 12:45:36 AM 34.6228 -117.9614 259° West 360 414 13,500 -978 Descending Los Angeles Center
Tue 12:50:44 AM 34.5500 -118.4167 239° Southwest 273 314 8,200 -878 Descending Southern California TRACON
Tue 12:51:38 AM 34.5167 -118.4833 195° South 234 269 8,200 -574 Level Southern California TRACON
Tue 12:52:39 AM 34.4667 -118.5000 192° South 214 246 7,100 -1,140 Descending Southern California TRACON
Tue 12:53:39 AM 34.4000 -118.5167 165° South 213 245 5,900 -1,263 Descending Southern California TRACON
Tue 12:54:33 AM 34.3500 -118.5000 180° South 202 232 4,700 -1,350 Descending Southern California TRACON
Tue 12:55:39 AM 34.3000 -118.5000 180° South 176 203 3,200 -1,286 Descending Southern California TRACON
Tue 12:56:39 AM 34.2667 -118.5000 165° South 140 161 2,000 -1,100 Descending Southern California TRACON
Tue 12:57:39 AM 34.2167 -118.4833 165° South 131 151 1,000 -1,000 Descending Southern California TRACON

Login

Don't have an account? Register now (free) for customized features, flight alerts, and more!